createdAt,value
2019-04-01T00:00:43.617Z,115.67
2019-04-01T00:03:15.379Z,114.20
2019-04-01T00:05:47.026Z,106.40
2019-04-01T00:08:19.002Z,114.33
2019-04-01T00:10:50.920Z,112.87
2019-04-01T00:13:22.732Z,113.77
2019-04-01T00:15:54.693Z,104.03
2019-04-01T00:18:26.800Z,98.97
2019-04-01T00:20:58.320Z,101.93
2019-04-01T00:23:29.966Z,98.27
2019-04-01T00:26:01.837Z,100.93
2019-04-01T00:28:33.888Z,110.27
2019-04-01T00:31:05.355Z,108.93
2019-04-01T00:33:37.126Z,104.17
2019-04-01T00:36:08.674Z,109.73
2019-04-01T00:38:44.585Z,109.57
2019-04-01T00:41:15.959Z,113.53
2019-04-01T00:43:55.114Z,86.90
2019-04-01T00:46:26.566Z,86.20
2019-04-01T00:48:58.610Z,80.50
2019-04-01T00:51:30.264Z,81.57
2019-04-01T00:54:02.146Z,79.77
2019-04-01T00:56:33.801Z,78.60
2019-04-01T00:59:05.975Z,76.73
2019-04-01T01:01:37.628Z,76.70
2019-04-01T01:04:10.607Z,79.37
2019-04-01T01:06:42.077Z,85.33
2019-04-01T01:09:14.138Z,88.17
2019-04-01T01:11:45.796Z,77.83
2019-04-01T01:14:17.761Z,77.20
2019-04-01T01:16:50.272Z,72.97
2019-04-01T01:19:21.782Z,70.40
2019-04-01T01:21:53.800Z,80.73
2019-04-01T01:24:25.524Z,74.73
2019-04-01T01:26:56.963Z,76.77
2019-04-01T01:29:28.824Z,79.13
2019-04-01T01:32:00.498Z,83.13
2019-04-01T01:34:32.135Z,79.00
2019-04-01T01:37:03.914Z,79.53
2019-04-01T01:39:35.757Z,77.47
2019-04-01T01:42:07.317Z,76.07
2019-04-01T01:44:39.096Z,72.10
2019-04-01T01:47:10.956Z,76.03
2019-04-01T01:49:42.712Z,80.83
2019-04-01T01:52:15.085Z,77.80
2019-04-01T01:54:46.765Z,70.17
2019-04-01T01:57:18.501Z,76.87
2019-04-01T01:59:50.350Z,81.97
2019-04-01T02:02:21.923Z,76.67
2019-04-01T02:04:53.885Z,88.40
2019-04-01T02:07:25.427Z,87.33
2019-04-01T02:09:57.406Z,82.47
2019-04-01T02:12:28.961Z,85.50
2019-04-01T02:15:00.719Z,94.53
2019-04-01T02:17:34.919Z,93.70
2019-04-01T02:20:06.906Z,91.10
2019-04-01T02:22:38.548Z,90.67
2019-04-01T02:25:10.218Z,99.83
2019-04-01T02:27:41.874Z,100.97
2019-04-01T02:30:13.750Z,97.50
2019-04-01T02:32:45.713Z,92.00
2019-04-01T02:35:17.463Z,93.70
2019-04-01T02:37:49.227Z,100.73
2019-04-01T02:40:22.130Z,90.23
2019-04-01T02:42:53.982Z,96.20
2019-04-01T02:45:25.452Z,101.57
2019-04-01T02:47:56.878Z,99.80
2019-04-01T02:50:28.847Z,107.07
2019-04-01T02:53:00.574Z,107.33
2019-04-01T02:55:32.670Z,114.37
2019-04-01T02:58:04.529Z,125.23
2019-04-01T03:00:36.064Z,114.27
2019-04-01T03:03:07.637Z,113.07
2019-04-01T03:05:39.303Z,109.83
2019-04-01T03:08:11.259Z,99.37
2019-04-01T03:10:43.633Z,103.87
2019-04-01T03:13:15.080Z,106.60
2019-04-01T03:15:46.743Z,109.17
2019-04-01T03:18:19.424Z,107.43
2019-04-01T03:20:51.101Z,104.43
2019-04-01T03:23:22.849Z,102.60
2019-04-01T03:25:54.603Z,103.23
2019-04-01T03:28:26.157Z,99.83
2019-04-01T03:30:57.698Z,104.80
2019-04-01T03:33:29.462Z,98.50
2019-04-01T03:36:01.142Z,106.00
2019-04-01T03:38:33.101Z,103.83
2019-04-01T03:41:04.653Z,114.77
2019-04-01T03:43:36.492Z,108.83
2019-04-01T03:46:08.274Z,113.30
2019-04-01T03:48:39.945Z,112.67
2019-04-01T03:51:11.806Z,107.07
2019-04-01T03:53:43.349Z,104.37
2019-04-01T03:56:15.622Z,97.53
2019-04-01T03:58:47.174Z,94.57
2019-04-01T04:01:19.506Z,90.67
2019-04-01T04:03:51.310Z,88.03
2019-04-01T04:06:23.178Z,93.07
2019-04-01T04:08:56.083Z,87.70
2019-04-01T04:11:27.921Z,98.17
2019-04-01T04:13:59.709Z,104.43
2019-04-01T04:16:31.656Z,104.87
2019-04-01T04:19:03.713Z,109.30
2019-04-01T04:21:35.349Z,106.50
2019-04-01T04:24:07.230Z,107.47
2019-04-01T04:26:38.908Z,117.43
2019-04-01T04:29:10.442Z,121.50
2019-04-01T04:31:42.516Z,113.37
2019-04-01T04:34:14.170Z,110.43
2019-04-01T04:36:45.932Z,120.93
2019-04-01T04:39:17.598Z,111.37
2019-04-01T04:41:49.448Z,104.67
2019-04-01T04:44:21.402Z,117.33
2019-04-01T04:46:52.976Z,125.73
2019-04-01T04:49:24.927Z,120.57
2019-04-01T04:51:56.590Z,115.47
2019-04-01T04:54:28.450Z,110.73
2019-04-01T04:57:00.107Z,112.60
2019-04-01T04:59:32.170Z,102.93
2019-04-01T05:02:04.138Z,101.80
2019-04-01T05:04:36.001Z,104.70
2019-04-01T05:07:08.168Z,123.67
2019-04-01T05:09:39.618Z,128.62
2019-04-01T05:12:11.797Z,128.67
2019-04-01T05:14:43.628Z,129.35
2019-04-01T05:17:15.605Z,112.25
2019-04-01T05:19:48.303Z,116.37
2019-04-01T05:22:20.265Z,130.87
2019-04-01T05:24:52.287Z,116.57
2019-04-01T05:27:25.919Z,118.77
2019-04-01T05:29:57.482Z,116.50
2019-04-01T05:32:29.330Z,115.50
2019-04-01T05:35:01.118Z,117.75
2019-04-01T05:37:32.662Z,115.35
2019-04-01T05:40:05.062Z,116.30
2019-04-01T05:42:37.085Z,104.60
2019-04-01T05:45:08.761Z,94.75
2019-04-01T05:47:45.430Z,86.97
2019-04-01T05:50:17.138Z,95.55
2019-04-01T05:52:49.150Z,91.78
2019-04-01T05:55:20.598Z,89.80
2019-04-01T05:57:53.693Z,91.25
2019-04-01T06:00:30.169Z,82.85
2019-04-01T06:03:01.923Z,82.25
2019-04-01T06:05:33.457Z,77.78
2019-04-01T06:08:05.322Z,73.75
2019-04-01T06:10:37.914Z,81.70
2019-04-01T06:13:09.661Z,78.47
2019-04-01T06:15:41.425Z,73.12
2019-04-01T06:18:13.306Z,70.67
2019-04-01T06:20:45.187Z,71.57
2019-04-01T06:23:17.199Z,72.32
2019-04-01T06:25:48.581Z,73.33
2019-04-01T06:28:21.885Z,70.28
2019-04-01T06:30:54.049Z,65.00
2019-04-01T06:33:25.619Z,67.12
2019-04-01T06:35:57.271Z,70.97
2019-04-01T06:38:28.818Z,67.75
2019-04-01T06:41:00.766Z,67.70
2019-04-01T06:43:32.418Z,72.37
2019-04-01T06:46:04.176Z,67.17
2019-04-01T06:48:36.068Z,68.15
2019-04-01T06:51:07.715Z,67.62
2019-04-01T06:53:39.480Z,66.15
2019-04-01T06:56:11.123Z,69.35
2019-04-01T06:58:43.120Z,67.37
2019-04-01T07:01:14.637Z,61.25
2019-04-01T07:03:46.416Z,64.62
2019-04-01T07:06:17.968Z,59.27
2019-04-01T07:08:49.835Z,63.52
2019-04-01T07:11:21.713Z,61.48
2019-04-01T07:13:53.456Z,63.92
2019-04-01T07:16:24.995Z,56.08
2019-04-01T07:18:57.110Z,52.93
2019-04-01T07:21:29.454Z,54.58
2019-04-01T07:24:01.203Z,50.35
2019-04-01T07:26:32.849Z,56.70
2019-04-01T07:29:04.731Z,53.05
2019-04-01T07:31:36.280Z,48.50
2019-04-01T07:34:08.359Z,54.00
2019-04-01T07:36:40.194Z,52.45
2019-04-01T07:39:11.958Z,53.25
2019-04-01T07:41:43.516Z,50.00
2019-04-01T07:44:15.495Z,55.33
2019-04-01T07:46:47.153Z,53.68
2019-04-01T07:49:19.018Z,52.38
2019-04-01T07:51:51.286Z,44.27
2019-04-01T07:54:22.924Z,39.58
2019-04-01T07:56:54.700Z,39.98
2019-04-01T07:59:26.147Z,37.63
2019-04-01T08:01:57.913Z,38.00
2019-04-01T08:04:29.883Z,36.63
2019-04-01T08:07:01.318Z,43.40
2019-04-01T08:09:33.099Z,39.05
2019-04-01T08:12:05.052Z,36.95
2019-04-01T08:14:36.620Z,30.55
2019-04-01T08:17:08.367Z,33.42
2019-04-01T08:19:40.245Z,30.82
2019-04-01T08:22:12.006Z,33.67
2019-04-01T08:24:43.843Z,33.70
2019-04-01T08:27:15.522Z,32.70
2019-04-01T08:29:47.053Z,32.42
2019-04-01T08:32:19.034Z,30.65
2019-04-01T08:34:50.798Z,31.60
2019-04-01T08:37:22.644Z,35.55
2019-04-01T08:39:54.261Z,36.58
2019-04-01T08:42:26.077Z,32.33
2019-04-01T08:44:57.839Z,34.50
2019-04-01T08:47:29.689Z,37.65
2019-04-01T08:50:01.147Z,35.35
2019-04-01T08:52:32.814Z,39.70
2019-04-01T08:55:06.830Z,41.85
2019-04-01T08:57:38.362Z,39.30
2019-04-01T09:00:10.241Z,42.83
2019-04-01T09:02:41.902Z,46.13
2019-04-01T09:05:13.559Z,38.65
2019-04-01T09:07:45.183Z,50.67
2019-04-01T09:10:16.955Z,48.05
2019-04-01T09:12:48.814Z,51.73
2019-04-01T09:15:20.475Z,43.68
2019-04-01T09:17:52.381Z,49.50
2019-04-01T09:20:24.214Z,32.75
2019-04-01T09:22:59.107Z,36.42
2019-04-01T09:25:29.066Z,39.75
2019-04-01T09:28:00.742Z,29.00
2019-04-01T09:30:33.302Z,25.82
2019-04-01T09:33:05.059Z,31.33
2019-04-01T09:35:36.501Z,38.10
2019-04-01T09:38:08.567Z,27.40
2019-04-01T09:40:40.227Z,29.12
2019-04-01T09:43:14.139Z,32.73
2019-04-01T09:45:45.296Z,36.93
2019-04-01T09:48:17.267Z,36.88
2019-04-01T09:50:49.023Z,37.60
2019-04-01T09:53:22.003Z,41.00
2019-04-01T09:55:53.568Z,36.55
2019-04-01T09:58:25.027Z,35.20
2019-04-01T10:00:56.657Z,34.05
2019-04-01T10:03:28.438Z,36.45
2019-04-01T10:05:59.974Z,33.60
2019-04-01T10:08:42.166Z,34.35
2019-04-01T10:11:05.188Z,35.92
2019-04-01T10:13:36.784Z,33.90
2019-04-01T10:16:08.377Z,32.33
2019-04-01T10:18:40.020Z,35.92
2019-04-01T10:21:11.670Z,37.05
2019-04-01T10:23:44.557Z,38.45
2019-04-01T10:26:16.431Z,35.83
2019-04-01T10:28:48.071Z,34.38
2019-04-01T10:31:21.380Z,29.67
2019-04-01T10:33:52.842Z,30.97
2019-04-01T10:36:24.601Z,29.48
2019-04-01T10:38:56.254Z,27.82
2019-04-01T10:41:28.425Z,26.80
2019-04-01T10:44:00.184Z,27.13
2019-04-01T10:46:32.152Z,25.08
2019-04-01T10:49:03.718Z,26.00
2019-04-01T10:51:35.794Z,24.20
2019-04-01T10:54:07.552Z,29.27
2019-04-01T10:56:40.852Z,27.80
2019-04-01T10:59:12.297Z,25.62
2019-04-01T11:01:44.176Z,27.82
2019-04-01T11:04:16.030Z,28.65
2019-04-01T11:06:47.608Z,28.27
2019-04-01T11:09:19.461Z,27.37
2019-04-01T11:11:51.309Z,27.90
2019-04-01T11:14:23.243Z,27.87
2019-04-01T11:16:55.934Z,27.45
2019-04-01T11:19:27.492Z,23.42
2019-04-01T11:22:00.066Z,23.87
2019-04-01T11:24:31.829Z,23.80
2019-04-01T11:27:03.691Z,23.73
2019-04-01T11:29:35.536Z,26.37
2019-04-01T11:32:07.754Z,31.10
2019-04-01T11:34:40.613Z,27.45
2019-04-01T11:37:12.476Z,25.75
2019-04-01T11:39:44.535Z,23.12
2019-04-01T11:42:16.719Z,21.73
2019-04-01T11:44:48.449Z,22.10
2019-04-01T11:47:22.137Z,24.10
2019-04-01T11:49:53.945Z,23.20
2019-04-01T11:52:25.790Z,23.02
2019-04-01T11:54:57.571Z,22.55
2019-04-01T11:57:30.640Z,21.75
2019-04-01T12:00:02.178Z,22.82
2019-04-01T12:02:34.162Z,21.90
2019-04-01T12:05:06.432Z,19.52
2019-04-01T12:07:38.088Z,23.02
2019-04-01T12:10:10.381Z,21.20
2019-04-01T12:12:42.212Z,20.40
2019-04-01T12:15:13.991Z,20.92
2019-04-01T12:17:45.628Z,18.20
2019-04-01T12:20:17.303Z,22.22
2019-04-01T12:22:49.777Z,20.75
2019-04-01T12:25:21.108Z,22.62
2019-04-01T12:27:52.889Z,22.00
2019-04-01T12:30:26.214Z,21.75
2019-04-01T12:32:57.950Z,23.27
2019-04-01T12:35:29.482Z,22.35
2019-04-01T12:38:01.386Z,21.35
2019-04-01T12:40:33.106Z,24.52
2019-04-01T12:43:04.982Z,22.27
2019-04-01T12:45:36.949Z,21.70
2019-04-01T12:48:08.489Z,20.88
2019-04-01T12:50:40.267Z,23.60
2019-04-01T12:53:12.022Z,21.52
2019-04-01T12:55:45.066Z,22.22
2019-04-01T12:58:17.803Z,23.87
2019-04-01T13:00:49.458Z,22.58
2019-04-01T13:03:22.548Z,23.50
2019-04-01T13:05:57.152Z,24.32
2019-04-01T13:08:29.012Z,23.42
2019-04-01T13:11:00.772Z,24.95
2019-04-01T13:13:32.250Z,29.12
2019-04-01T13:16:03.988Z,26.50
2019-04-01T13:18:38.115Z,32.20
2019-04-01T13:21:08.960Z,30.35
2019-04-01T13:23:41.627Z,37.53
2019-04-01T13:26:13.424Z,30.32
2019-04-01T13:28:45.050Z,31.62
2019-04-01T13:31:16.604Z,28.23
2019-04-01T13:33:48.092Z,25.60
2019-04-01T13:36:21.175Z,29.40
2019-04-01T13:38:53.134Z,29.95
2019-04-01T13:41:25.309Z,28.23
2019-04-01T13:43:56.963Z,28.42
2019-04-01T13:46:28.442Z,29.57
2019-04-01T13:49:04.158Z,29.52
2019-04-01T13:51:33.399Z,28.27
2019-04-01T13:54:09.045Z,27.73
2019-04-01T13:56:38.216Z,26.70
2019-04-01T13:59:11.927Z,27.98
2019-04-01T14:01:43.355Z,26.93
2019-04-01T14:04:15.139Z,28.32
2019-04-01T14:06:46.699Z,28.65
2019-04-01T14:09:18.121Z,30.48
2019-04-01T14:11:51.419Z,28.07
2019-04-01T14:14:22.991Z,27.52
2019-04-01T14:16:54.652Z,32.53
2019-04-01T14:19:26.513Z,29.57
2019-04-01T14:21:58.371Z,28.67
2019-04-01T14:24:30.442Z,32.23
2019-04-01T14:27:02.205Z,33.25
2019-04-01T14:29:33.691Z,30.72
2019-04-01T14:32:05.616Z,32.60
2019-04-01T14:34:37.193Z,30.27
2019-04-01T14:37:09.790Z,28.27
2019-04-01T14:39:41.570Z,26.77
2019-04-01T14:42:14.109Z,25.23
2019-04-01T14:44:51.388Z,27.70
2019-04-01T14:47:23.143Z,27.05
2019-04-01T14:49:54.784Z,27.10
2019-04-01T14:52:32.542Z,31.60
2019-04-01T14:55:03.954Z,31.48
2019-04-01T14:57:35.406Z,40.28
2019-04-01T15:00:08.343Z,32.35
2019-04-01T15:02:40.054Z,34.27
2019-04-01T15:05:12.763Z,30.08
2019-04-01T15:07:44.804Z,38.05
2019-04-01T15:10:16.730Z,30.12
2019-04-01T15:12:48.423Z,35.43
2019-04-01T15:15:19.997Z,30.37
2019-04-01T15:17:51.739Z,30.40
2019-04-01T15:20:23.706Z,30.62
2019-04-01T15:22:55.384Z,32.63
2019-04-01T15:25:27.976Z,29.23
2019-04-01T15:27:59.521Z,32.23
2019-04-01T15:30:32.059Z,30.30
2019-04-01T15:33:03.616Z,30.10
2019-04-01T15:35:35.596Z,30.08
2019-04-01T15:38:07.066Z,29.25
2019-04-01T15:40:38.998Z,29.85
2019-04-01T15:43:11.983Z,32.90
2019-04-01T15:45:43.753Z,29.30
2019-04-01T15:48:15.626Z,27.87
2019-04-01T15:50:47.508Z,27.13
2019-04-01T15:53:19.351Z,29.50
2019-04-01T15:55:51.009Z,29.63
2019-04-01T15:58:22.751Z,27.02
2019-04-01T16:00:54.445Z,26.33
2019-04-01T16:03:26.263Z,22.75
2019-04-01T16:06:03.034Z,24.37
2019-04-01T16:08:34.930Z,27.43
2019-04-01T16:11:06.891Z,26.52
2019-04-01T16:13:38.426Z,23.05
2019-04-01T16:16:10.410Z,25.17
2019-04-01T16:18:41.960Z,26.07
2019-04-01T16:21:14.231Z,24.02
2019-04-01T16:23:47.123Z,23.38
2019-04-01T16:26:19.888Z,24.80
2019-04-01T16:28:51.767Z,24.43
2019-04-01T16:31:23.531Z,18.45
2019-04-01T16:33:55.386Z,23.05
2019-04-01T16:36:27.032Z,26.52
2019-04-01T16:39:00.549Z,28.13
2019-04-01T16:41:33.526Z,27.73
2019-04-01T16:44:08.172Z,22.82
2019-04-01T16:46:40.950Z,26.70
2019-04-01T16:49:12.617Z,23.62
2019-04-01T16:51:44.356Z,25.43
2019-04-01T16:54:16.136Z,23.02
2019-04-01T16:56:48.180Z,20.68
2019-04-01T16:59:19.635Z,23.18
2019-04-01T17:01:52.225Z,27.85
2019-04-01T17:04:23.783Z,23.85
2019-04-01T17:06:55.548Z,24.27
2019-04-01T17:09:27.314Z,23.70
2019-04-01T17:11:59.212Z,23.15
2019-04-01T17:14:30.817Z,23.98
2019-04-01T17:17:02.490Z,22.73
2019-04-01T17:19:34.175Z,22.20
2019-04-01T17:22:06.607Z,24.20
2019-04-01T17:24:38.054Z,24.63
2019-04-01T17:27:11.451Z,25.95
2019-04-01T17:29:44.952Z,26.23
2019-04-01T17:32:16.311Z,22.15
2019-04-01T17:34:50.234Z,19.70
2019-04-01T17:37:21.767Z,22.00
2019-04-01T17:39:53.547Z,20.45
2019-04-01T17:42:25.304Z,22.02
2019-04-01T17:45:01.400Z,22.30
2019-04-01T17:47:32.806Z,21.55
2019-04-01T17:50:06.511Z,24.72
2019-04-01T17:52:37.975Z,22.50
2019-04-01T17:55:09.848Z,23.07
2019-04-01T17:57:42.831Z,20.05
2019-04-01T18:00:25.141Z,22.45
2019-04-01T18:02:56.892Z,20.72
2019-04-01T18:05:28.855Z,20.23
2019-04-01T18:08:00.309Z,19.15
2019-04-01T18:10:32.363Z,20.57
2019-04-01T18:13:03.820Z,19.82
2019-04-01T18:15:35.374Z,21.37
2019-04-01T18:18:07.253Z,17.37
2019-04-01T18:20:39.011Z,19.65
2019-04-01T18:23:11.490Z,24.72
2019-04-01T18:25:43.329Z,22.30
2019-04-01T18:28:14.888Z,21.37
2019-04-01T18:30:47.886Z,19.10
2019-04-01T18:33:20.064Z,23.30
2019-04-01T18:35:51.614Z,22.22
2019-04-01T18:38:23.785Z,24.20
2019-04-01T18:40:55.529Z,20.68
2019-04-01T18:43:28.108Z,18.32
2019-04-01T18:45:59.781Z,19.57
2019-04-01T18:48:31.644Z,20.02
2019-04-01T18:51:03.408Z,24.02
2019-04-01T18:53:35.272Z,24.90
2019-04-01T18:56:07.854Z,21.40
2019-04-01T18:58:39.609Z,19.17
2019-04-01T19:01:11.063Z,19.30
2019-04-01T19:03:43.164Z,17.27
2019-04-01T19:06:14.884Z,18.15
2019-04-01T19:08:46.539Z,16.97
2019-04-01T19:11:18.406Z,19.15
2019-04-01T19:13:50.163Z,18.17
2019-04-01T19:16:23.086Z,16.80
2019-04-01T19:18:54.614Z,19.75
2019-04-01T19:21:26.251Z,17.30
2019-04-01T19:23:59.172Z,16.25
2019-04-01T19:26:31.504Z,18.42
2019-04-01T19:29:03.492Z,17.20
2019-04-01T19:31:35.248Z,19.60
2019-04-01T19:34:07.406Z,17.37
2019-04-01T19:36:39.285Z,16.90
2019-04-01T19:39:11.345Z,21.05
2019-04-01T19:41:42.791Z,18.02
2019-04-01T19:44:14.677Z,18.67
2019-04-01T19:46:46.120Z,20.80
2019-04-01T19:49:17.778Z,19.23
2019-04-01T19:51:49.852Z,15.53
2019-04-01T19:54:30.955Z,15.60
2019-04-01T19:56:54.903Z,13.50
2019-04-01T19:59:26.359Z,15.30
2019-04-01T20:01:58.333Z,14.75
2019-04-01T20:04:30.898Z,14.98
2019-04-01T20:07:02.762Z,18.07
2019-04-01T20:09:34.415Z,20.55
2019-04-01T20:12:07.492Z,18.27
2019-04-01T20:14:40.603Z,23.47
2019-04-01T20:17:12.339Z,23.25
2019-04-01T20:19:43.998Z,21.90
2019-04-01T20:22:15.962Z,16.85
2019-04-01T20:24:48.035Z,16.37
2019-04-01T20:27:20.713Z,20.00
2019-04-01T20:29:52.587Z,19.05
2019-04-01T20:32:24.293Z,18.25
2019-04-01T20:34:57.389Z,17.75
2019-04-01T20:37:29.624Z,18.17
2019-04-01T20:40:01.274Z,21.42
2019-04-01T20:42:33.911Z,21.02
2019-04-01T20:45:07.238Z,19.87
2019-04-01T20:47:38.929Z,17.92
2019-04-01T20:50:10.657Z,19.60
2019-04-01T20:52:42.208Z,16.93
2019-04-01T20:55:14.271Z,22.80
2019-04-01T20:57:46.519Z,14.85
2019-04-01T21:00:18.497Z,19.17
2019-04-01T21:02:50.376Z,22.22
2019-04-01T21:05:23.141Z,20.60
2019-04-01T21:07:55.731Z,19.07
2019-04-01T21:10:27.290Z,22.25
2019-04-01T21:12:59.355Z,18.80
2019-04-01T21:15:30.909Z,18.85
2019-04-01T21:18:02.651Z,18.40
2019-04-01T21:20:34.324Z,17.12
2019-04-01T21:23:07.195Z,19.12
2019-04-01T21:25:40.199Z,18.95
2019-04-01T21:28:11.767Z,21.20
2019-04-01T21:30:44.247Z,21.85
2019-04-01T21:33:16.998Z,19.82
2019-04-01T21:35:48.674Z,20.55
2019-04-01T21:38:21.043Z,19.57
2019-04-01T21:40:52.814Z,17.85
2019-04-01T21:43:24.566Z,17.12
2019-04-01T21:45:56.103Z,20.82
2019-04-01T21:48:27.982Z,22.10
2019-04-01T21:50:59.836Z,17.48
2019-04-01T21:53:31.658Z,15.78
2019-04-01T21:56:03.140Z,20.45
2019-04-01T21:58:35.125Z,19.45
2019-04-01T22:01:06.677Z,18.52
2019-04-01T22:03:39.962Z,19.70
2019-04-01T22:06:11.931Z,22.65
2019-04-01T22:08:44.007Z,18.95
2019-04-01T22:11:15.644Z,22.42
2019-04-01T22:13:47.662Z,23.22
2019-04-01T22:16:19.436Z,17.90
2019-04-01T22:18:50.922Z,18.82
2019-04-01T22:21:22.691Z,22.27
2019-04-01T22:23:54.154Z,23.55
2019-04-01T22:26:25.709Z,20.95
2019-04-01T22:28:57.369Z,23.47
2019-04-01T22:31:29.129Z,21.33
2019-04-01T22:34:02.117Z,22.55
2019-04-01T22:36:33.864Z,21.27
2019-04-01T22:39:06.970Z,19.98
2019-04-01T22:41:41.390Z,21.62
2019-04-01T22:44:11.632Z,19.55
2019-04-01T22:46:44.090Z,21.80
2019-04-01T22:49:15.859Z,17.90
2019-04-01T22:51:47.630Z,17.73
2019-04-01T22:54:19.282Z,18.10
2019-04-01T22:56:51.754Z,18.52
2019-04-01T22:59:23.415Z,22.62
2019-04-01T23:01:55.361Z,20.08
2019-04-01T23:04:26.828Z,15.93
2019-04-01T23:06:58.508Z,18.37
2019-04-01T23:09:30.344Z,16.90
2019-04-01T23:12:01.807Z,15.95
2019-04-01T23:14:33.550Z,16.85
2019-04-01T23:17:05.327Z,18.45
2019-04-01T23:19:36.863Z,16.60
2019-04-01T23:22:08.625Z,17.30
2019-04-01T23:24:40.403Z,18.62
2019-04-01T23:27:11.982Z,16.15
2019-04-01T23:29:43.614Z,14.78
2019-04-01T23:32:16.329Z,13.20
2019-04-01T23:34:48.147Z,15.20
2019-04-01T23:37:19.719Z,13.32
2019-04-01T23:39:51.168Z,17.92
2019-04-01T23:42:23.031Z,14.15
2019-04-01T23:44:54.687Z,13.40
2019-04-01T23:47:26.245Z,14.55
2019-04-01T23:49:58.207Z,14.73
2019-04-01T23:52:29.979Z,13.03
2019-04-01T23:55:01.622Z,12.20
2019-04-01T23:57:33.368Z,16.12
